createdAt,value
2023-05-13T00:00:07.430Z,39.8760
2023-05-13T00:01:08.527Z,39.8929
2023-05-13T00:02:09.621Z,39.9547
2023-05-13T00:03:10.798Z,39.9484
2023-05-13T00:04:11.845Z,39.9271
2023-05-13T00:05:12.930Z,39.9740
2023-05-13T00:06:14.054Z,39.9537
2023-05-13T00:07:15.114Z,39.9688
2023-05-13T00:08:16.228Z,39.9330
2023-05-13T00:09:17.329Z,40.0641
2023-05-13T00:10:18.444Z,40.0442
2023-05-13T00:11:19.521Z,39.8769
2023-05-13T00:12:20.618Z,39.8740
2023-05-13T00:13:21.700Z,39.9224
2023-05-13T00:14:22.804Z,39.8919
2023-05-13T00:15:23.919Z,39.9517
2023-05-13T00:16:25.000Z,39.9325
2023-05-13T00:17:26.128Z,39.8989
2023-05-13T00:18:27.251Z,39.8565
2023-05-13T00:19:28.308Z,40.0332
2023-05-13T00:20:29.408Z,40.0416
2023-05-13T00:21:30.532Z,39.9455
2023-05-13T00:22:31.638Z,39.9386
2023-05-13T00:23:32.711Z,39.9323
2023-05-13T00:24:33.833Z,39.9601
2023-05-13T00:25:34.928Z,40.0107
2023-05-13T00:26:36.002Z,39.9487
2023-05-13T00:27:37.121Z,39.9970
2023-05-13T00:28:38.214Z,40.0027
2023-05-13T00:29:39.308Z,39.8800
2023-05-13T00:30:40.420Z,39.9223
2023-05-13T00:31:41.629Z,39.8903
2023-05-13T00:32:42.640Z,39.9256
2023-05-13T00:33:43.718Z,40.0003
2023-05-13T00:34:44.843Z,39.9587
2023-05-13T00:35:45.919Z,39.8686
2023-05-13T00:36:47.016Z,39.9134
2023-05-13T00:37:48.129Z,39.9460
2023-05-13T00:38:49.330Z,39.8977
2023-05-13T00:39:50.338Z,39.9259
2023-05-13T00:40:51.452Z,40.0698
2023-05-13T00:41:52.515Z,40.0819
2023-05-13T00:42:53.623Z,40.0482
2023-05-13T00:43:54.734Z,40.0427
2023-05-13T00:44:55.829Z,39.9840
2023-05-13T00:45:56.945Z,40.0763
2023-05-13T00:46:58.019Z,40.0620
2023-05-13T00:47:59.212Z,40.1713
2023-05-13T00:49:00.200Z,40.0672
2023-05-13T00:50:01.332Z,40.0081
2023-05-13T00:51:02.435Z,40.0893
2023-05-13T00:52:03.512Z,40.2541
2023-05-13T00:53:04.606Z,40.2406
2023-05-13T00:54:05.738Z,40.1789
2023-05-13T00:55:06.820Z,40.1427
2023-05-13T00:56:07.928Z,40.1152
2023-05-13T00:57:09.006Z,40.1039
2023-05-13T00:58:10.113Z,39.9800
2023-05-13T00:59:11.232Z,40.0054
2023-05-13T01:00:12.328Z,40.1805
2023-05-13T01:01:13.432Z,40.1516
2023-05-13T01:02:14.565Z,40.2375
2023-05-13T01:03:15.653Z,40.1088
2023-05-13T01:04:16.715Z,40.0131
2023-05-13T01:05:17.977Z,40.0705
2023-05-13T01:06:18.922Z,40.1138
2023-05-13T01:07:20.010Z,40.1238
2023-05-13T01:08:21.127Z,40.0095
2023-05-13T01:09:22.244Z,40.0296
2023-05-13T01:10:23.573Z,39.9585
2023-05-13T01:11:24.420Z,39.9614
2023-05-13T01:12:25.520Z,40.0388
2023-05-13T01:13:26.635Z,40.0204
2023-05-13T01:14:27.724Z,39.9925
2023-05-13T01:15:28.824Z,39.8650
2023-05-13T01:16:29.990Z,39.8103
2023-05-13T01:17:31.047Z,39.9612
2023-05-13T01:18:32.149Z,39.9839
2023-05-13T01:19:33.212Z,40.0828
2023-05-13T01:20:34.376Z,40.1296
2023-05-13T01:21:35.416Z,40.1845
2023-05-13T01:22:36.527Z,40.1873
2023-05-13T01:23:37.635Z,40.1913
2023-05-13T01:24:38.759Z,40.2608
2023-05-13T01:25:39.884Z,40.1570
2023-05-13T01:26:40.926Z,40.2370
2023-05-13T01:27:42.013Z,40.2097
2023-05-13T01:28:43.106Z,40.1759
2023-05-13T01:29:44.236Z,40.1695
2023-05-13T01:30:45.327Z,40.2122
2023-05-13T01:31:46.519Z,40.0483
2023-05-13T01:32:47.560Z,39.9727
2023-05-13T01:33:48.604Z,39.9594
2023-05-13T01:34:49.707Z,39.9035
2023-05-13T01:35:50.839Z,40.0467
2023-05-13T01:36:51.892Z,39.9915
2023-05-13T01:37:53.011Z,40.1416
2023-05-13T01:38:54.116Z,40.0841
2023-05-13T01:39:55.204Z,39.9122
2023-05-13T01:40:56.317Z,39.8502
2023-05-13T01:41:57.390Z,39.8053
2023-05-13T01:42:58.485Z,39.9535
2023-05-13T01:43:59.597Z,40.1019
2023-05-13T01:45:00.711Z,40.0300
2023-05-13T01:46:01.860Z,40.0115
2023-05-13T01:47:02.900Z,39.9567
2023-05-13T01:48:04.021Z,39.9541
2023-05-13T01:49:05.093Z,39.9576
2023-05-13T01:50:06.191Z,40.1539
2023-05-13T01:51:07.303Z,40.0724
2023-05-13T01:52:08.392Z,40.1982
2023-05-13T01:53:09.504Z,40.2264
2023-05-13T01:54:10.582Z,40.2345
2023-05-13T01:55:11.695Z,40.2406
2023-05-13T01:56:12.792Z,40.1996
2023-05-13T01:57:13.889Z,40.1277
2023-05-13T01:58:14.961Z,40.1078
2023-05-13T01:59:16.064Z,40.0232
2023-05-13T02:00:17.184Z,40.0762
2023-05-13T02:01:19.378Z,40.2189
2023-05-13T02:02:19.390Z,40.2339
2023-05-13T02:03:20.550Z,40.1884
2023-05-13T02:04:21.568Z,40.0706
2023-05-13T02:05:30.186Z,40.0323
2023-05-13T02:06:23.788Z,40.0604
2023-05-13T02:07:24.853Z,39.9908
2023-05-13T02:08:25.974Z,39.9772
2023-05-13T02:09:27.047Z,40.0629
2023-05-13T02:10:28.153Z,40.2523
2023-05-13T02:11:29.260Z,40.2512
2023-05-13T02:12:30.328Z,40.2860
2023-05-13T02:13:31.441Z,40.3582
2023-05-13T02:14:32.637Z,40.2468
2023-05-13T02:15:33.631Z,40.1892
2023-05-13T02:16:34.763Z,40.1305
2023-05-13T02:17:35.850Z,40.1575
2023-05-13T02:18:36.983Z,40.2606
2023-05-13T02:19:38.026Z,40.2440
2023-05-13T02:20:39.103Z,40.0905
2023-05-13T02:21:40.217Z,39.9717
2023-05-13T02:22:41.333Z,40.0847
2023-05-13T02:23:42.401Z,40.0290
2023-05-13T02:24:43.546Z,40.0289
2023-05-13T02:25:44.606Z,40.0962
2023-05-13T02:26:45.744Z,40.1345
2023-05-13T02:27:46.798Z,40.2503
2023-05-13T02:28:47.922Z,40.1378
2023-05-13T02:29:49.011Z,40.0947
2023-05-13T02:30:50.094Z,40.1807
2023-05-13T02:31:51.263Z,40.1663
2023-05-13T02:32:52.414Z,40.3297
2023-05-13T02:33:53.398Z,40.2864
2023-05-13T02:34:54.492Z,40.1412
2023-05-13T02:35:55.587Z,40.2101
2023-05-13T02:36:56.709Z,40.2307
2023-05-13T02:38:23.324Z,40.1422
2023-05-13T02:38:58.936Z,40.2897
2023-05-13T02:40:00.063Z,40.2400
2023-05-13T02:41:01.133Z,40.2834
2023-05-13T02:42:02.231Z,40.1490
2023-05-13T02:43:03.321Z,39.9812
2023-05-13T02:44:04.415Z,39.9933
2023-05-13T02:45:05.505Z,40.0316
2023-05-13T02:46:06.719Z,40.1110
2023-05-13T02:47:07.720Z,40.2016
2023-05-13T02:48:08.868Z,40.1644
2023-05-13T02:49:09.875Z,40.0103
2023-05-13T02:50:10.994Z,39.9467
2023-05-13T02:51:12.092Z,39.9898
2023-05-13T02:52:13.195Z,40.0168
2023-05-13T02:53:14.286Z,39.9118
2023-05-13T02:54:15.399Z,39.8678
2023-05-13T02:55:16.517Z,39.9117
2023-05-13T02:56:17.563Z,39.9191
2023-05-13T02:57:18.661Z,39.9913
2023-05-13T02:58:19.791Z,40.0612
2023-05-13T02:59:20.886Z,40.0236
2023-05-13T03:00:22.173Z,39.9515
2023-05-13T03:01:23.120Z,39.9166
2023-05-13T03:02:24.228Z,39.9703
2023-05-13T03:03:25.434Z,39.9353
2023-05-13T03:04:26.377Z,40.0068
2023-05-13T03:05:29.217Z,40.0137
2023-05-13T03:06:28.577Z,39.9490
2023-05-13T03:07:29.665Z,39.9495
2023-05-13T03:08:30.733Z,39.9461
2023-05-13T03:09:31.872Z,39.9821
2023-05-13T03:10:32.940Z,39.9224
2023-05-13T03:11:34.015Z,39.8233
2023-05-13T03:12:35.159Z,39.8825
2023-05-13T03:13:36.237Z,39.9288
2023-05-13T03:14:37.307Z,40.0073
2023-05-13T03:15:38.467Z,40.0344
2023-05-13T03:16:39.567Z,40.0026
2023-05-13T03:17:40.646Z,39.9378
2023-05-13T03:18:41.745Z,39.9840
2023-05-13T03:19:42.817Z,40.0321
2023-05-13T03:20:43.918Z,40.0361
2023-05-13T03:21:44.995Z,39.8753
2023-05-13T03:22:46.095Z,39.8737
2023-05-13T03:23:47.203Z,39.7680
2023-05-13T03:24:48.293Z,39.8123
2023-05-13T03:25:49.413Z,39.8772
2023-05-13T03:26:50.493Z,40.0551
2023-05-13T03:27:51.635Z,40.0715
2023-05-13T03:28:52.725Z,40.1431
2023-05-13T03:29:53.806Z,40.1098
2023-05-13T03:30:54.922Z,40.0267
2023-05-13T03:31:56.017Z,40.0199
2023-05-13T03:32:57.157Z,40.0047
2023-05-13T03:33:58.187Z,40.0016
2023-05-13T03:34:59.300Z,39.9672
2023-05-13T03:36:00.420Z,39.9311
2023-05-13T03:37:01.480Z,39.9347
2023-05-13T03:38:02.626Z,40.0500
2023-05-13T03:39:03.708Z,40.2766
2023-05-13T03:40:04.772Z,40.2941
2023-05-13T03:41:05.886Z,40.1999
2023-05-13T03:42:06.998Z,40.1717
2023-05-13T03:43:08.091Z,40.2046
2023-05-13T03:44:09.178Z,40.1290
2023-05-13T03:45:10.273Z,40.0135
2023-05-13T03:46:11.374Z,40.0325
2023-05-13T03:47:12.461Z,40.1314
2023-05-13T03:48:13.594Z,40.1996
2023-05-13T03:49:14.631Z,40.2124
2023-05-13T03:50:15.769Z,40.1409
2023-05-13T03:51:16.865Z,40.2213
2023-05-13T03:52:17.962Z,40.1391
2023-05-13T03:53:19.056Z,39.9923
2023-05-13T03:54:20.167Z,39.9981
2023-05-13T03:55:21.254Z,40.0118
2023-05-13T03:56:22.338Z,40.1030
2023-05-13T03:57:23.463Z,40.1422
2023-05-13T03:58:24.569Z,39.9234
2023-05-13T03:59:25.630Z,39.8416
2023-05-13T04:00:26.730Z,39.8367
2023-05-13T04:01:27.816Z,39.8847
2023-05-13T04:02:29.011Z,39.9947
2023-05-13T04:03:30.068Z,39.9285
2023-05-13T04:04:31.162Z,39.8029
2023-05-13T04:05:32.237Z,39.7797
2023-05-13T04:06:33.286Z,39.7272
2023-05-13T04:07:34.371Z,39.8558
2023-05-13T04:08:35.515Z,39.8138
2023-05-13T04:09:36.569Z,39.8537
2023-05-13T04:10:37.668Z,39.9353
2023-05-13T04:11:38.756Z,39.8871
2023-05-13T04:12:39.842Z,39.9487
2023-05-13T04:13:40.956Z,40.0459
2023-05-13T04:14:42.015Z,39.9933
2023-05-13T04:15:43.143Z,39.9587
2023-05-13T04:16:44.222Z,39.8629
2023-05-13T04:17:45.355Z,40.0030
2023-05-13T04:18:46.525Z,40.1907
2023-05-13T04:19:47.520Z,40.1620
2023-05-13T04:20:48.615Z,40.1934
2023-05-13T04:21:49.677Z,40.1710
2023-05-13T04:22:50.778Z,40.2798
2023-05-13T04:23:51.894Z,40.2398
2023-05-13T04:24:53.006Z,40.1623
2023-05-13T04:25:54.071Z,40.0022
2023-05-13T04:26:55.174Z,39.9703
2023-05-13T04:27:56.252Z,40.0696
2023-05-13T04:28:57.397Z,39.9407
2023-05-13T04:29:58.448Z,39.8162
2023-05-13T04:30:59.537Z,39.7821
2023-05-13T04:32:00.690Z,39.7846
2023-05-13T04:33:01.815Z,39.7589
2023-05-13T04:34:02.848Z,39.7913
2023-05-13T04:35:03.943Z,39.8239
2023-05-13T04:36:04.991Z,39.8246
2023-05-13T04:37:06.073Z,39.8324
2023-05-13T04:38:07.183Z,39.8083
2023-05-13T04:39:08.263Z,39.8526
2023-05-13T04:40:09.373Z,39.9203
2023-05-13T04:41:10.473Z,39.8761
2023-05-13T04:42:11.556Z,39.9932
2023-05-13T04:43:12.643Z,40.0157
2023-05-13T04:44:13.743Z,39.9947
2023-05-13T04:45:14.847Z,39.9776
2023-05-13T04:46:15.972Z,39.9264
2023-05-13T04:47:17.014Z,40.0009
2023-05-13T04:48:18.110Z,39.9765
2023-05-13T04:49:19.210Z,40.1583
2023-05-13T04:50:20.487Z,40.1533
2023-05-13T04:51:21.399Z,40.2603
2023-05-13T04:52:22.532Z,40.1837
2023-05-13T04:53:23.582Z,40.0901
2023-05-13T04:54:24.712Z,40.0346
2023-05-13T04:55:27.577Z,40.0289
2023-05-13T04:56:26.853Z,40.0685
2023-05-13T04:57:27.991Z,40.0490
2023-05-13T04:58:29.068Z,39.9292
2023-05-13T04:59:30.152Z,39.9460
2023-05-13T05:00:31.224Z,39.9644
2023-05-13T05:01:32.352Z,40.0299
2023-05-13T05:02:33.462Z,39.9551
2023-05-13T05:03:34.613Z,39.8834
2023-05-13T05:04:35.618Z,39.8583
2023-05-13T05:05:36.702Z,39.9263
2023-05-13T05:06:37.800Z,39.9450
2023-05-13T05:07:38.914Z,40.0257
2023-05-13T05:08:40.023Z,40.0447
2023-05-13T05:09:41.278Z,40.0341
2023-05-13T05:10:42.195Z,40.1683
2023-05-13T05:11:43.284Z,40.0269
2023-05-13T05:12:44.416Z,39.9502
2023-05-13T05:13:45.488Z,39.9439
2023-05-13T05:14:46.593Z,39.9294
2023-05-13T05:15:47.690Z,39.8764
2023-05-13T05:16:48.846Z,39.9684
2023-05-13T05:17:49.917Z,40.0158
2023-05-13T05:18:51.052Z,40.0290
2023-05-13T05:19:52.100Z,39.9542
2023-05-13T05:20:53.188Z,39.8983
2023-05-13T05:21:54.241Z,39.9608
2023-05-13T05:22:55.346Z,39.9821
2023-05-13T05:23:56.470Z,39.9880
2023-05-13T05:24:57.572Z,40.1238
2023-05-13T05:26:08.351Z,39.9480
2023-05-13T05:27:00.716Z,39.9869
2023-05-13T05:28:00.815Z,40.0751
2023-05-13T05:29:01.933Z,39.9700
2023-05-13T05:30:03.104Z,40.0500
2023-05-13T05:31:04.170Z,40.0402
2023-05-13T05:32:05.270Z,40.0134
2023-05-13T05:33:06.379Z,40.0015
2023-05-13T05:34:07.403Z,40.1080
2023-05-13T05:35:08.501Z,40.1368
2023-05-13T05:36:09.625Z,40.0620
2023-05-13T05:37:10.709Z,39.9386
2023-05-13T05:38:11.805Z,39.8920
2023-05-13T05:39:12.925Z,39.9022
2023-05-13T05:40:13.987Z,39.9722
2023-05-13T05:41:15.084Z,39.9751
2023-05-13T05:42:16.197Z,39.9934
2023-05-13T05:43:17.303Z,40.0119
2023-05-13T05:44:18.391Z,39.9112
2023-05-13T05:45:19.507Z,39.8617
2023-05-13T05:46:20.672Z,39.9198
2023-05-13T05:47:21.734Z,39.9026
2023-05-13T05:48:22.794Z,39.8886
2023-05-13T05:49:23.889Z,39.7837
2023-05-13T05:50:25.019Z,39.6909
2023-05-13T05:51:26.095Z,39.7193
2023-05-13T05:52:27.173Z,39.7730
2023-05-13T05:53:28.260Z,39.7718
2023-05-13T05:54:29.369Z,39.7091
2023-05-13T05:55:30.491Z,39.7076
2023-05-13T05:56:31.576Z,39.7483
2023-05-13T05:57:32.669Z,39.8280
2023-05-13T05:58:33.754Z,39.8200
2023-05-13T05:59:34.864Z,39.7278
2023-05-13T06:00:35.964Z,39.7812
2023-05-13T06:01:37.064Z,39.9116
2023-05-13T06:02:38.228Z,39.9950
2023-05-13T06:03:39.312Z,39.9560
2023-05-13T06:04:40.407Z,39.8353
2023-05-13T06:05:41.436Z,39.7541
2023-05-13T06:06:42.575Z,39.9175
2023-05-13T06:07:43.647Z,40.0107
2023-05-13T06:08:44.748Z,40.1236
2023-05-13T06:09:45.837Z,40.0350
2023-05-13T06:10:46.934Z,40.0643
2023-05-13T06:11:48.049Z,39.9798
2023-05-13T06:12:49.145Z,39.9751
2023-05-13T06:13:50.246Z,40.0004
2023-05-13T06:14:51.321Z,39.9946
2023-05-13T06:15:52.429Z,39.9587
2023-05-13T06:16:54.987Z,39.8811
2023-05-13T06:17:54.662Z,39.8902
2023-05-13T06:18:55.746Z,39.9049
2023-05-13T06:19:56.795Z,39.8643
2023-05-13T06:20:57.928Z,39.8767
2023-05-13T06:21:59.003Z,39.9507
2023-05-13T06:23:00.105Z,39.8574
2023-05-13T06:24:01.200Z,39.8625
2023-05-13T06:25:02.314Z,39.7842
2023-05-13T06:26:03.387Z,39.7534
2023-05-13T06:27:04.492Z,39.7453
2023-05-13T06:28:05.584Z,39.6984
2023-05-13T06:29:06.663Z,39.8799
2023-05-13T06:30:07.768Z,39.9900
2023-05-13T06:31:08.901Z,39.8173
2023-05-13T06:32:09.965Z,39.7511
2023-05-13T06:33:11.074Z,39.6529
2023-05-13T06:34:12.169Z,39.6900
2023-05-13T06:35:13.280Z,39.8364
2023-05-13T06:36:14.387Z,39.8668
2023-05-13T06:37:15.453Z,40.0415
2023-05-13T06:38:16.558Z,39.9226
2023-05-13T06:39:17.765Z,39.9381
2023-05-13T06:40:18.851Z,39.9207
2023-05-13T06:41:19.937Z,39.9186
2023-05-13T06:42:21.032Z,39.8819
2023-05-13T06:43:22.130Z,40.0354
2023-05-13T06:44:23.229Z,40.1461
2023-05-13T06:45:24.353Z,40.1652
2023-05-13T06:46:25.459Z,39.9967
2023-05-13T06:47:26.572Z,39.8972
2023-05-13T06:48:27.662Z,39.9007
2023-05-13T06:49:28.735Z,39.9911
2023-05-13T06:50:29.826Z,40.1255
2023-05-13T06:51:30.946Z,40.0601
2023-05-13T06:52:32.043Z,40.0945
2023-05-13T06:53:33.118Z,40.0084
2023-05-13T06:54:34.243Z,39.9657
2023-05-13T06:55:35.331Z,39.8664
2023-05-13T06:56:36.421Z,39.8569
2023-05-13T06:57:42.958Z,39.8639
2023-05-13T06:58:39.621Z,39.9015
2023-05-13T06:59:39.726Z,39.9956
2023-05-13T07:00:40.922Z,40.1031
2023-05-13T07:01:41.914Z,40.1854
2023-05-13T07:02:43.067Z,40.1738
2023-05-13T07:03:44.240Z,39.9779
2023-05-13T07:04:45.208Z,39.9399
2023-05-13T07:05:46.333Z,39.7452
2023-05-13T07:06:47.408Z,39.7365
2023-05-13T07:07:48.489Z,39.9017
2023-05-13T07:08:49.592Z,39.8128
2023-05-13T07:09:50.697Z,39.9051
2023-05-13T07:10:51.781Z,39.8409
2023-05-13T07:11:52.878Z,39.7930
2023-05-13T07:12:53.959Z,39.8205
2023-05-13T07:13:55.086Z,39.9661
2023-05-13T07:14:56.203Z,39.9861
2023-05-13T07:15:57.257Z,39.9420
2023-05-13T07:16:58.379Z,39.8743
2023-05-13T07:17:59.496Z,39.9632
2023-05-13T07:19:00.633Z,39.9541
2023-05-13T07:20:01.665Z,40.0182
2023-05-13T07:21:02.751Z,40.1499
2023-05-13T07:22:03.846Z,40.0449
2023-05-13T07:23:04.932Z,39.8992
2023-05-13T07:24:06.023Z,39.9784
2023-05-13T07:25:07.145Z,39.9271
2023-05-13T07:26:08.242Z,39.8445
2023-05-13T07:27:09.333Z,39.8682
2023-05-13T07:28:10.421Z,39.9251
2023-05-13T07:29:11.558Z,39.8386
2023-05-13T07:30:12.657Z,39.7662
2023-05-13T07:31:13.755Z,39.6131
2023-05-13T07:32:14.843Z,39.4683
2023-05-13T07:33:15.927Z,39.4775
2023-05-13T07:34:16.989Z,39.4631
2023-05-13T07:35:18.094Z,39.4347
2023-05-13T07:36:19.220Z,39.3518
2023-05-13T07:37:20.304Z,39.3474
2023-05-13T07:38:21.401Z,39.3389
2023-05-13T07:39:22.498Z,39.3041
2023-05-13T07:40:23.720Z,39.2887
2023-05-13T07:41:24.689Z,39.3019
2023-05-13T07:42:25.818Z,39.3740
2023-05-13T07:43:26.883Z,39.3460
2023-05-13T07:44:27.986Z,39.3599
2023-05-13T07:45:29.090Z,39.3987
2023-05-13T07:46:30.210Z,39.2987
2023-05-13T07:47:31.289Z,39.2740
2023-05-13T07:48:32.396Z,39.2516
2023-05-13T07:49:33.459Z,39.2018
2023-05-13T07:50:34.559Z,39.1623
2023-05-13T07:51:35.672Z,39.1179
2023-05-13T07:52:36.765Z,39.1504
2023-05-13T07:53:37.839Z,39.1995
2023-05-13T07:54:38.967Z,39.0938
2023-05-13T07:55:40.058Z,39.1306
2023-05-13T07:56:41.147Z,39.0623
2023-05-13T07:57:42.300Z,38.9570
2023-05-13T07:58:43.365Z,38.9984
2023-05-13T07:59:45.002Z,39.0779
2023-05-13T08:00:45.571Z,39.1032
2023-05-13T08:01:46.696Z,39.0470
2023-05-13T08:02:47.915Z,39.0707
2023-05-13T08:03:49.071Z,39.0857
2023-05-13T08:04:50.025Z,38.9806
2023-05-13T08:05:51.109Z,38.9593
2023-05-13T08:06:52.205Z,38.9988
2023-05-13T08:07:53.329Z,39.0019
2023-05-13T08:08:54.444Z,38.9890
2023-05-13T08:09:55.517Z,38.8793
2023-05-13T08:10:56.650Z,38.8290
2023-05-13T08:11:57.748Z,38.8111
2023-05-13T08:12:58.874Z,38.8577
2023-05-13T08:13:59.943Z,38.8215
2023-05-13T08:15:01.087Z,38.8186
2023-05-13T08:16:02.234Z,38.8951
2023-05-13T08:17:03.249Z,38.9317
2023-05-13T08:18:04.389Z,39.0510
2023-05-13T08:19:05.537Z,39.1440
2023-05-13T08:20:06.598Z,39.2037
2023-05-13T08:21:07.712Z,39.2305
2023-05-13T08:22:08.805Z,39.2531
2023-05-13T08:23:09.925Z,39.1302
2023-05-13T08:24:10.978Z,38.9869
2023-05-13T08:25:12.094Z,38.8881
2023-05-13T08:26:13.234Z,38.8654
2023-05-13T08:27:14.342Z,38.9077
2023-05-13T08:28:15.445Z,39.0159
2023-05-13T08:29:16.546Z,38.9326
2023-05-13T08:30:17.625Z,38.8042
2023-05-13T08:31:18.770Z,38.6355
2023-05-13T08:32:19.909Z,38.5546
2023-05-13T08:33:20.962Z,38.5958
2023-05-13T08:34:22.056Z,38.5051
2023-05-13T08:35:23.409Z,38.5531
2023-05-13T08:36:24.277Z,38.4249
2023-05-13T08:37:25.386Z,38.3483
2023-05-13T08:38:26.586Z,38.3430
2023-05-13T08:39:27.586Z,38.3743
2023-05-13T08:40:28.696Z,38.4295
2023-05-13T08:41:29.841Z,38.4448
2023-05-13T08:42:30.901Z,38.5056
2023-05-13T08:43:32.025Z,38.4244
2023-05-13T08:44:33.138Z,38.4311
2023-05-13T08:45:34.238Z,38.4289
2023-05-13T08:46:35.374Z,38.4658
2023-05-13T08:47:37.197Z,38.5168
2023-05-13T08:48:37.563Z,38.6063
2023-05-13T08:49:38.641Z,38.6362
2023-05-13T08:50:39.778Z,38.6097
2023-05-13T08:51:40.879Z,38.6300
2023-05-13T08:52:41.970Z,38.6233
2023-05-13T08:53:43.066Z,38.5458
2023-05-13T08:54:44.185Z,38.4708
2023-05-13T08:55:45.262Z,38.4483
2023-05-13T08:56:46.388Z,38.4301
2023-05-13T08:57:47.485Z,38.4329
2023-05-13T08:58:48.582Z,38.4418
2023-05-13T08:59:49.687Z,38.4046
2023-05-13T09:00:50.811Z,38.3028
2023-05-13T09:01:52.016Z,38.3038
2023-05-13T09:02:53.065Z,38.3321
2023-05-13T09:03:54.153Z,38.3329
2023-05-13T09:04:55.295Z,38.2631
2023-05-13T09:05:56.339Z,38.2300
2023-05-13T09:06:57.433Z,38.3085
2023-05-13T09:07:58.553Z,38.3460
2023-05-13T09:08:59.658Z,38.3709
2023-05-13T09:10:00.773Z,38.4668
2023-05-13T09:11:01.888Z,38.4652
2023-05-13T09:12:02.970Z,38.4139
2023-05-13T09:13:04.083Z,38.3743
2023-05-13T09:14:05.222Z,38.2707
2023-05-13T09:15:06.312Z,38.2343
2023-05-13T09:16:07.441Z,38.1397
2023-05-13T09:17:08.517Z,38.1391
2023-05-13T09:18:09.733Z,38.1152
2023-05-13T09:19:10.769Z,37.9879
2023-05-13T09:20:11.845Z,37.8978
2023-05-13T09:21:12.945Z,37.9535
2023-05-13T09:22:14.039Z,38.0072
2023-05-13T09:23:15.159Z,38.1500
2023-05-13T09:24:16.255Z,38.1727
2023-05-13T09:25:17.369Z,38.1054
2023-05-13T09:26:18.454Z,38.0156
2023-05-13T09:27:19.581Z,37.9830
2023-05-13T09:28:20.664Z,37.9836
2023-05-13T09:29:21.784Z,37.9490
2023-05-13T09:30:22.896Z,37.9362
2023-05-13T09:31:24.098Z,37.9229
2023-05-13T09:32:25.102Z,37.9396
2023-05-13T09:33:26.210Z,37.9130
2023-05-13T09:34:27.305Z,37.9465
2023-05-13T09:35:28.425Z,37.8803
2023-05-13T09:36:29.553Z,37.9420
2023-05-13T09:37:30.626Z,37.9704
2023-05-13T09:38:31.780Z,37.9958
2023-05-13T09:39:33.773Z,38.0906
2023-05-13T09:40:33.950Z,38.1059
2023-05-13T09:41:35.098Z,38.1298
2023-05-13T09:42:36.184Z,38.1145
2023-05-13T09:43:37.261Z,38.1636
2023-05-13T09:44:38.476Z,38.2054
2023-05-13T09:45:39.480Z,38.2176
2023-05-13T09:46:40.632Z,38.1922
2023-05-13T09:47:41.721Z,38.2413
2023-05-13T09:48:42.822Z,38.2960
2023-05-13T09:49:43.898Z,38.3638
2023-05-13T09:50:45.006Z,38.4813
2023-05-13T09:51:46.108Z,38.5072
2023-05-13T09:52:47.235Z,38.5033
2023-05-13T09:53:48.342Z,38.5767
2023-05-13T09:54:49.484Z,38.5713
2023-05-13T09:55:50.539Z,38.5741
2023-05-13T09:56:51.658Z,38.5226
2023-05-13T09:57:52.755Z,38.5095
2023-05-13T09:58:53.910Z,38.6931
2023-05-13T09:59:55.013Z,38.8018
2023-05-13T10:00:56.098Z,38.8631
2023-05-13T10:01:57.189Z,38.8950
2023-05-13T10:02:58.319Z,38.8225
2023-05-13T10:03:59.479Z,38.7843
2023-05-13T10:05:00.548Z,38.8044
2023-05-13T10:06:03.608Z,38.9727
2023-05-13T10:07:02.730Z,39.0499
2023-05-13T10:08:03.828Z,39.1161
2023-05-13T10:09:04.945Z,39.1505
2023-05-13T10:10:06.063Z,39.0879
2023-05-13T10:11:07.147Z,38.9861
2023-05-13T10:12:08.254Z,38.9652
2023-05-13T10:13:09.363Z,39.1021
2023-05-13T10:14:10.451Z,39.3482
2023-05-13T10:15:11.590Z,39.3867
2023-05-13T10:16:12.714Z,39.4772
2023-05-13T10:17:13.765Z,39.5160
2023-05-13T10:18:14.946Z,39.4869
2023-05-13T10:19:16.041Z,39.4217
2023-05-13T10:20:17.112Z,39.3813
2023-05-13T10:21:18.190Z,39.3152
2023-05-13T10:22:19.309Z,39.4179
2023-05-13T10:23:20.407Z,39.4403
2023-05-13T10:24:21.539Z,39.4542
2023-05-13T10:25:22.631Z,39.4331
2023-05-13T10:26:23.716Z,39.4744
2023-05-13T10:27:24.829Z,39.5043
2023-05-13T10:28:25.947Z,39.4880
2023-05-13T10:29:27.157Z,39.4437
2023-05-13T10:30:28.161Z,39.4575
2023-05-13T10:31:29.312Z,39.4469
2023-05-13T10:32:30.429Z,39.5240
2023-05-13T10:33:31.459Z,39.5819
2023-05-13T10:34:32.581Z,39.5989
2023-05-13T10:35:36.777Z,39.7500
2023-05-13T10:36:34.775Z,39.9884
2023-05-13T10:37:35.882Z,40.0804
2023-05-13T10:38:36.983Z,40.1569
2023-05-13T10:39:38.102Z,40.1482
2023-05-13T10:40:39.276Z,40.1601
2023-05-13T10:41:40.357Z,40.2023
2023-05-13T10:42:41.467Z,40.1677
2023-05-13T10:43:42.582Z,40.2799
2023-05-13T10:44:43.670Z,40.4903
2023-05-13T10:45:44.800Z,40.5396
2023-05-13T10:46:45.956Z,40.3625
2023-05-13T10:47:47.021Z,40.2358
2023-05-13T10:48:48.070Z,40.2103
2023-05-13T10:49:49.155Z,40.1191
2023-05-13T10:50:50.252Z,40.1618
2023-05-13T10:51:51.351Z,40.1801
2023-05-13T10:52:52.627Z,40.0676
2023-05-13T10:53:53.516Z,40.1115
2023-05-13T10:54:54.628Z,40.3002
2023-05-13T10:55:55.748Z,40.4434
2023-05-13T10:56:56.814Z,40.4768
2023-05-13T10:57:57.916Z,40.5242
2023-05-13T10:58:58.998Z,40.4357
2023-05-13T11:00:00.133Z,40.4846
2023-05-13T11:01:01.175Z,40.5568
2023-05-13T11:02:02.336Z,40.5349
2023-05-13T11:03:03.435Z,40.4616
2023-05-13T11:04:04.652Z,40.4451
2023-05-13T11:05:05.563Z,40.3282
2023-05-13T11:06:06.660Z,40.2981
2023-05-13T11:07:07.743Z,40.2764
2023-05-13T11:08:08.824Z,40.1245
2023-05-13T11:09:09.936Z,39.9752
2023-05-13T11:10:11.024Z,40.0017
2023-05-13T11:11:12.144Z,40.0592
2023-05-13T11:12:13.214Z,40.0590
2023-05-13T11:13:14.301Z,40.0107
2023-05-13T11:14:15.399Z,40.0217
2023-05-13T11:15:16.495Z,40.0063
2023-05-13T11:16:17.646Z,40.0128
2023-05-13T11:17:18.677Z,40.0391
2023-05-13T11:18:19.755Z,40.1084
2023-05-13T11:19:20.866Z,40.0461
2023-05-13T11:20:22.207Z,39.9246
2023-05-13T11:21:23.056Z,39.9301
2023-05-13T11:22:24.437Z,39.8623
2023-05-13T11:23:25.233Z,39.7327
2023-05-13T11:24:26.316Z,39.7324
2023-05-13T11:25:27.440Z,39.7738
2023-05-13T11:26:28.535Z,39.8226
2023-05-13T11:27:29.597Z,39.7949
2023-05-13T11:28:30.701Z,39.6121
2023-05-13T11:29:31.785Z,39.5651
2023-05-13T11:30:32.887Z,39.5024
2023-05-13T11:31:34.050Z,39.5416
2023-05-13T11:32:35.105Z,39.6271
2023-05-13T11:33:36.174Z,39.6682
2023-05-13T11:34:37.269Z,39.6617
2023-05-13T11:35:38.362Z,39.6318
2023-05-13T11:36:39.488Z,39.6890
2023-05-13T11:37:40.571Z,39.6990
2023-05-13T11:38:41.652Z,39.6957
2023-05-13T11:39:42.763Z,39.6935
2023-05-13T11:40:43.867Z,39.6044
2023-05-13T11:41:44.953Z,39.7158
2023-05-13T11:42:46.053Z,39.8576
2023-05-13T11:43:55.676Z,39.8750
2023-05-13T11:44:55.749Z,39.8833
2023-05-13T11:45:56.873Z,39.8121
2023-05-13T11:46:58.954Z,39.6814
2023-05-13T11:47:51.541Z,39.5901
2023-05-13T11:48:52.607Z,39.5575
2023-05-13T11:49:53.708Z,39.4873
2023-05-13T11:50:54.796Z,39.3785
2023-05-13T11:51:55.904Z,39.3433
2023-05-13T11:52:57.005Z,39.2816
2023-05-13T11:53:58.087Z,39.2041
2023-05-13T11:54:59.183Z,39.2234
2023-05-13T11:56:00.262Z,39.0633
2023-05-13T11:57:01.379Z,39.0711
2023-05-13T11:58:02.440Z,39.1920
2023-05-13T11:59:03.548Z,39.1400
2023-05-13T12:00:04.631Z,39.0433
2023-05-13T12:01:05.738Z,38.9296
2023-05-13T12:02:06.913Z,39.0158
2023-05-13T12:03:08.108Z,39.1611
2023-05-13T12:04:08.994Z,39.3219
2023-05-13T12:05:10.176Z,39.3286
2023-05-13T12:06:11.193Z,39.3541
2023-05-13T12:07:12.288Z,39.2779
2023-05-13T12:08:13.375Z,39.2557
2023-05-13T12:09:14.500Z,39.3517
2023-05-13T12:10:15.566Z,39.4129
2023-05-13T12:11:16.693Z,39.3572
2023-05-13T12:12:17.764Z,39.2418
2023-05-13T12:13:18.858Z,39.1272
2023-05-13T12:14:19.937Z,38.8455
2023-05-13T12:15:21.332Z,38.6588
2023-05-13T12:16:22.176Z,38.6145
2023-05-13T12:17:23.298Z,38.5019
2023-05-13T12:18:24.388Z,38.5880